Time;durP1;ratioP1;P1;durP2;ratioP2;P2;SDS_P1;SDS_P2;PMS_P1;PMS_P2;Temp;Humidity;BMP_temperature;BMP_pressure;BME280_temperature;BME280_humidity;BME280_pressure;Samples;Min_cycle;Max_cycle;Signal;HPM_P1;HPM_P2
2023/07/24 00:00:01;;;;;;;5.13;2.43;;;;;;;17.13;100.00;99771.13;695603;28;805;-59
2023/07/24 00:00:21;;;;;;;4.70;2.70;;;;;;;17.14;100.00;99777.25;696394;28;1424;-59
2023/07/24 00:00:42;;;;;;;4.50;2.47;;;;;;;17.13;100.00;99772.94;696483;28;894;-59
2023/07/24 00:01:02;;;;;;;4.77;2.50;;;;;;;17.13;100.00;99772.94;696944;28;1410;-59
2023/07/24 00:01:22;;;;;;;4.73;2.70;;;;;;;17.15;100.00;99773.69;699211;28;4317;-59
2023/07/24 00:01:43;;;;;;;4.68;2.60;;;;;;;17.15;100.00;99771.06;702449;28;943;-59
2023/07/24 00:02:03;;;;;;;4.67;2.50;;;;;;;17.13;100.00;99768.50;701333;28;931;-59
2023/07/24 00:02:24;;;;;;;5.30;2.63;;;;;;;17.14;100.00;99767.56;701315;28;1615;-59
2023/07/24 00:02:44;;;;;;;5.07;2.83;;;;;;;17.13;100.00;99771.13;701126;28;1121;-59
2023/07/24 00:03:05;;;;;;;4.75;2.60;;;;;;;17.16;100.00;99765.69;701982;28;848;-59
2023/07/24 00:03:25;;;;;;;4.87;2.60;;;;;;;17.19;100.00;99768.19;701345;28;1486;-59
2023/07/24 00:03:45;;;;;;;4.75;2.40;;;;;;;17.18;100.00;99769.13;700566;28;991;-60
2023/07/24 00:04:06;;;;;;;4.10;2.27;;;;;;;17.16;100.00;99760.41;699787;28;923;-60
2023/07/24 00:04:26;;;;;;;4.43;2.57;;;;;;;17.16;100.00;99765.69;697790;28;4510;-59
2023/07/24 00:04:47;;;;;;;4.30;2.50;;;;;;;17.16;100.00;99765.69;699562;28;859;-60
2023/07/24 00:05:07;;;;;;;4.93;2.67;;;;;;;17.16;100.00;99762.22;700365;28;959;-60
2023/07/24 00:05:28;;;;;;;5.28;2.90;;;;;;;17.17;100.00;99761.28;696195;28;1595;-59
2023/07/24 00:05:48;;;;;;;4.53;2.67;;;;;;;17.16;100.00;99765.69;692717;28;963;-59
2023/07/24 00:06:08;;;;;;;4.67;2.60;;;;;;;17.18;100.00;99761.22;695058;28;1248;-59
2023/07/24 00:06:29;;;;;;;4.70;2.60;;;;;;;17.17;100.00;99766.56;696518;28;1839;-59
2023/07/24 00:06:49;;;;;;;5.57;2.45;;;;;;;17.14;100.00;99766.69;694820;28;832;-59
2023/07/24 00:07:10;;;;;;;5.70;2.60;;;;;;;17.13;100.00;99759.72;694797;28;4450;-59
2023/07/24 00:07:30;;;;;;;4.70;2.40;;;;;;;17.10;100.00;99760.72;698961;28;1444;-59
2023/07/24 00:07:50;;;;;;;5.25;2.38;;;;;;;17.09;100.00;99763.44;698472;28;1272;-59
2023/07/24 00:08:11;;;;;;;5.10;2.50;;;;;;;17.09;100.00;99760.78;698402;28;939;-59
2023/07/24 00:08:31;;;;;;;4.00;2.40;;;;;;;17.08;100.00;99764.34;695820;28;1463;-59
2023/07/24 00:08:51;;;;;;;4.70;2.47;;;;;;;17.06;100.00;99771.47;696321;28;843;-59
2023/07/24 00:09:12;;;;;;;4.90;2.50;;;;;;;17.08;100.00;99761.72;695945;28;762;-59
2023/07/24 00:09:32;;;;;;;4.38;2.60;;;;;;;17.14;100.00;99762.28;694857;28;1534;-59
2023/07/24 00:09:52;;;;;;;4.77;2.57;;;;;;;17.14;100.00;99764.06;699197;28;879;-60
2023/07/24 00:10:13;;;;;;;4.68;2.47;;;;;;;17.13;100.00;99765.00;694567;28;4367;-60
2023/07/24 00:10:36;;;;;;;4.00;2.40;;;;;;;17.12;100.00;99763.28;701628;28;900;-59
2023/07/24 00:10:56;;;;;;;4.45;2.42;;;;;;;17.10;100.00;99760.72;702330;28;1003;-59
2023/07/24 00:11:16;;;;;;;4.43;2.60;;;;;;;17.09;100.00;99764.28;700226;28;1600;-59
2023/07/24 00:11:37;;;;;;;4.50;2.53;;;;;;;17.08;100.00;99765.19;701050;28;904;-59
2023/07/24 00:11:57;;;;;;;4.40;2.38;;;;;;;17.08;100.00;99764.34;702390;28;916;-59
2023/07/24 00:12:18;;;;;;;4.90;2.60;;;;;;;17.06;100.00;99761.78;703863;28;986;-59
2023/07/24 00:12:38;;;;;;;4.97;2.50;;;;;;;17.06;100.00;99763.53;703257;28;794;-59
2023/07/24 00:12:59;;;;;;;4.70;2.40;;;;;;;17.06;100.00;99760.91;703392;28;1168;-59
2023/07/24 00:13:19;;;;;;;4.53;2.57;;;;;;;17.05;100.00;99759.22;698672;28;4278;-59
2023/07/24 00:13:39;;;;;;;4.60;2.70;;;;;;;17.05;100.00;99759.22;698275;28;892;-59
2023/07/24 00:14:00;;;;;;;4.53;2.60;;;;;;;17.03;100.00;99764.56;697988;28;896;-59
2023/07/24 00:14:20;;;;;;;4.40;2.60;;;;;;;17.01;100.00;99756.69;695605;28;1467;-59
2023/07/24 00:14:40;;;;;;;5.20;2.63;;;;;;;17.03;100.00;99756.66;696578;28;1162;-59
2023/07/24 00:15:01;;;;;;;4.78;2.50;;;;;;;17.04;100.00;99762.78;698697;28;939;-59
2023/07/24 00:15:21;;;;;;;4.60;2.53;;;;;;;17.02;100.00;99768.97;697546;28;1428;-59
2023/07/24 00:15:42;;;;;;;5.10;2.70;;;;;;;17.00;100.00;99768.22;702083;28;916;-59
2023/07/24 00:16:07;;;;;;;5.17;2.50;;;;;;;16.99;100.00;99769.13;704219;28;923;-59
2023/07/24 00:16:27;;;;;;;5.22;2.50;;;;;;;16.98;100.00;99770.03;697596;28;4891;-59
2023/07/24 00:16:48;;;;;;;5.27;2.57;;;;;;;16.99;100.00;99763.00;699502;28;769;-59
2023/07/24 00:17:08;;;;;;;4.97;2.30;;;;;;;16.99;100.00;99765.63;698710;28;888;-59
2023/07/24 00:17:28;;;;;;;4.35;2.30;;;;;;;16.98;100.00;99759.47;698359;28;1778;-59
2023/07/24 00:17:49;;;;;;;4.43;2.40;;;;;;;17.00;100.00;99764.69;698958;28;1118;-59
2023/07/24 00:18:09;;;;;;;4.70;2.50;;;;;;;17.01;100.00;99759.34;698966;28;1911;-59
2023/07/24 00:18:29;;;;;;;5.13;2.70;;;;;;;17.04;100.00;99755.69;699385;28;1600;-60
2023/07/24 00:18:50;;;;;;;5.57;2.70;;;;;;;17.10;100.00;99755.44;703886;28;740;-59
2023/07/24 00:19:10;;;;;;;4.80;2.40;;;;;;;17.10;100.00;99754.56;701711;28;4645;-59
2023/07/24 00:19:30;;;;;;;4.97;2.40;;;;;;;17.09;100.00;99756.34;700319;28;1386;-59
2023/07/24 00:19:51;;;;;;;4.80;2.50;;;;;;;17.06;100.00;99748.59;700626;28;3436;-59
2023/07/24 00:20:11;;;;;;;4.60;2.50;;;;;;;17.06;100.00;99752.97;702174;28;1216;-59
2023/07/24 00:20:31;;;;;;;4.33;2.40;;;;;;;17.03;100.00;99754.00;700721;28;1424;-60
2023/07/24 00:20:52;;;;;;;4.80;2.40;;;;;;;17.04;100.00;99754.84;702374;28;762;-59
2023/07/24 00:21:15;;;;;;;4.60;2.50;;;;;;;17.02;100.00;99750.50;700412;28;1027;-59
2023/07/24 00:21:35;;;;;;;4.25;2.47;;;;;;;17.01;100.00;99751.41;698574;28;852;-60
2023/07/24 00:21:55;;;;;;;4.78;2.63;;;;;;;17.00;100.00;99759.41;700450;28;1275;-59
2023/07/24 00:22:16;;;;;;;4.83;2.37;;;;;;;17.00;100.00;99754.13;698404;28;4520;-60
2023/07/24 00:22:36;;;;;;;4.57;2.50;;;;;;;16.99;100.00;99750.66;701090;28;815;-59
2023/07/24 00:22:56;;;;;;;4.73;2.50;;;;;;;16.99;100.00;99750.66;698411;28;1070;-60
2023/07/24 00:23:17;;;;;;;4.40;2.30;;;;;;;16.99;100.00;99750.66;698182;28;1513;-60
2023/07/24 00:23:37;;;;;;;4.60;2.40;;;;;;;16.97;100.00;99747.19;699004;28;888;-59
2023/07/24 00:23:57;;;;;;;5.03;2.43;;;;;;;16.95;100.00;99750.88;698020;28;923;-59
2023/07/24 00:24:18;;;;;;;4.65;2.30;;;;;;;16.95;100.00;99748.22;698136;28;1525;-60
2023/07/24 00:24:38;;;;;;;4.87;2.40;;;;;;;16.92;100.00;99749.22;698620;28;1038;-59
2023/07/24 00:24:58;;;;;;;4.40;2.33;;;;;;;16.90;100.00;99748.41;698582;28;970;-60
2023/07/24 00:25:19;;;;;;;5.05;2.58;;;;;;;16.91;100.00;99750.13;701513;28;4535;-60
2023/07/24 00:25:39;;;;;;;5.47;2.70;;;;;;;16.90;100.00;99753.69;702858;28;780;-59
2023/07/24 00:26:00;;;;;;;4.90;2.70;;;;;;;16.90;100.00;99744.94;702387;28;942;-59
2023/07/24 00:26:20;;;;;;;4.88;2.60;;;;;;;16.90;100.00;99752.84;701915;28;1554;-59
2023/07/24 00:26:40;;;;;;;5.67;2.60;;;;;;;16.91;100.00;99751.94;700100;28;1262;-59
2023/07/24 00:27:01;;;;;;;4.97;2.50;;;;;;;16.89;100.00;99749.38;696635;28;1336;-59
2023/07/24 00:27:21;;;;;;;5.00;2.57;;;;;;;16.90;100.00;99752.84;695633;28;1547;-59
2023/07/24 00:27:42;;;;;;;4.90;2.40;;;;;;;16.89;100.00;99749.38;695686;28;1169;-59
2023/07/24 00:28:02;;;;;;;5.70;2.50;;;;;;;16.90;100.00;99752.84;693524;28;1042;-62
2023/07/24 00:28:23;;;;;;;4.88;2.30;;;;;;;16.88;100.00;99749.38;692538;28;4549;-60
2023/07/24 00:28:43;;;;;;;4.93;2.50;;;;;;;16.88;100.00;99750.25;693837;28;845;-59
2023/07/24 00:29:03;;;;;;;4.80;2.50;;;;;;;16.88;100.00;99754.66;692737;28;1157;-59
2023/07/24 00:29:24;;;;;;;4.65;2.55;;;;;;;16.89;100.00;99752.00;691270;28;1443;-60
2023/07/24 00:29:44;;;;;;;7.33;2.70;;;;;;;16.88;100.00;99755.53;690118;28;1048;-59
2023/07/24 00:30:05;;;;;;;8.23;2.72;;;;;;;16.90;100.00;99752.84;692742;28;896;-59
2023/07/24 00:30:26;;;;;;;5.22;2.53;;;;;;;16.89;100.00;99751.13;692241;28;1390;-59
2023/07/24 00:30:46;;;;;;;3.57;2.30;;;;;;;16.89;100.00;99754.66;694156;28;900;-59
2023/07/24 00:31:07;;;;;;;3.95;2.30;;;;;;;16.92;100.00;99756.25;693024;28;1268;-59
2023/07/24 00:31:27;;;;;;;4.90;2.40;;;;;;;16.91;100.00;99754.56;695072;28;4556;-59
2023/07/24 00:31:48;;;;;;;4.80;2.60;;;;;;;16.89;100.00;99751.13;694076;28;873;-59
2023/07/24 00:32:08;;;;;;;4.47;2.60;;;;;;;16.87;100.00;99759.09;690208;28;1400;-60
2023/07/24 00:32:29;;;;;;;4.75;2.25;;;;;;;16.91;100.00;99750.13;690330;28;1568;-59
2023/07/24 00:32:50;;;;;;;4.43;2.35;;;;;;;16.90;100.00;99745.78;692794;28;924;-59
2023/07/24 00:33:10;;;;;;;5.03;2.50;;;;;;;16.88;100.00;99749.38;695537;28;1010;-60
2023/07/24 00:33:34;;;;;;;4.90;2.35;;;;;;;16.88;100.00;99746.75;696172;28;1463;-59
2023/07/24 00:33:55;;;;;;;5.75;2.50;;;;;;;16.87;100.00;99753.81;700803;28;960;-59
2023/07/24 00:34:15;;;;;;;4.80;2.50;;;;;;;16.89;100.00;99752.00;700757;28;4746;-60
2023/07/24 00:34:35;;;;;;;4.72;2.70;;;;;;;16.90;100.00;99751.06;702949;28;856;-60
2023/07/24 00:34:56;;;;;;;5.05;2.72;;;;;;;16.89;100.00;99746.72;699123;28;1312;-59
2023/07/24 00:35:17;;;;;;;5.30;2.80;;;;;;;16.91;100.00;99750.13;693680;28;1764;-59
2023/07/24 00:35:38;;;;;;;4.37;2.60;;;;;;;16.92;100.00;99748.34;696422;28;904;-59
2023/07/24 00:35:58;;;;;;;4.43;2.55;;;;;;;16.94;100.00;99747.34;694557;28;978;-60
2023/07/24 00:36:19;;;;;;;4.27;2.30;;;;;;;16.94;100.00;99751.78;692729;28;1468;-60
2023/07/24 00:36:39;;;;;;;4.33;2.57;;;;;;;16.93;100.00;99745.63;694503;28;1012;-59
2023/07/24 00:37:00;;;;;;;4.33;2.70;;;;;;;16.95;100.00;99746.44;695062;28;1524;-60
2023/07/24 00:37:20;;;;;;;4.20;2.60;;;;;;;16.96;100.00;99748.16;695608;28;5229;-60
2023/07/24 00:37:41;;;;;;;4.17;2.60;;;;;;;16.95;100.00;99756.16;695451;28;967;-60
2023/07/24 00:38:01;;;;;;;4.65;2.50;;;;;;;16.95;100.00;99741.16;697794;28;1914;-59
2023/07/24 00:38:21;;;;;;;5.40;2.80;;;;;;;16.98;100.00;99745.44;693880;28;1631;-60
2023/07/24 00:38:42;;;;;;;5.78;2.70;;;;;;;16.96;100.00;99748.16;692868;28;1363;-59
2023/07/24 00:39:02;;;;;;;5.00;2.70;;;;;;;16.96;100.00;99748.16;697155;28;1168;-60
2023/07/24 00:39:28;;;;;;;4.40;2.70;;;;;;;16.98;100.00;99743.66;698619;28;1478;-59
2023/07/24 00:39:48;;;;;;;4.80;2.30;;;;;;;16.97;100.00;99749.84;700426;28;982;-59
2023/07/24 00:40:09;;;;;;;4.67;2.60;;;;;;;16.98;100.00;99746.28;699166;28;4381;-58
2023/07/24 00:40:29;;;;;;;4.40;2.60;;;;;;;16.96;100.00;99753.44;698149;28;1647;-60
2023/07/24 00:40:50;;;;;;;4.03;2.30;;;;;;;16.96;100.00;99744.63;699903;28;932;-59
2023/07/24 00:41:10;;;;;;;4.68;2.42;;;;;;;16.95;100.00;99741.16;699035;28;781;-59
2023/07/24 00:41:30;;;;;;;4.87;2.60;;;;;;;16.95;100.00;99742.94;695911;28;1563;-59
2023/07/24 00:41:51;;;;;;;4.68;2.50;;;;;;;16.95;100.00;99748.22;696128;28;1042;-60
2023/07/24 00:42:11;;;;;;;4.70;2.60;;;;;;;16.94;100.00;99739.44;696263;28;1188;-60
2023/07/24 00:42:32;;;;;;;4.87;2.70;;;;;;;16.93;100.00;99743.00;692403;28;1465;-60
2023/07/24 00:42:52;;;;;;;4.72;2.65;;;;;;;16.94;100.00;99743.88;694543;28;944;-60
2023/07/24 00:43:15;;;;;;;4.67;2.40;;;;;;;16.92;100.00;99741.28;694448;28;4601;-60
2023/07/24 00:43:35;;;;;;;4.57;2.40;;;;;;;16.91;100.00;99751.94;696402;28;1245;-60
2023/07/24 00:43:55;;;;;;;4.63;2.50;;;;;;;16.92;100.00;99750.97;698688;28;777;-60
2023/07/24 00:44:18;;;;;;;5.50;2.57;;;;;;;16.91;100.00;99739.56;699973;28;1437;-60
2023/07/24 00:44:38;;;;;;;4.63;2.60;;;;;;;16.91;100.00;99750.13;701756;28;947;-60
2023/07/24 00:44:59;;;;;;;5.50;2.50;;;;;;;16.91;100.00;99746.66;701882;28;892;-60
2023/07/24 00:45:19;;;;;;;4.97;2.50;;;;;;;16.91;100.00;99746.66;701880;28;1546;-61
2023/07/24 00:45:40;;;;;;;4.50;2.60;;;;;;;16.90;100.00;99743.13;702553;28;932;-60
2023/07/24 00:46:02;;;;;;;4.37;2.30;;;;;;;16.90;100.00;99744.94;700077;28;952;-59
2023/07/24 00:46:23;;;;;;;3.97;2.40;;;;;;;16.90;100.00;99748.41;696097;28;4566;-60
2023/07/24 00:46:43;;;;;;;3.70;2.30;;;;;;;16.88;100.00;99744.97;697716;28;986;-60
2023/07/24 00:47:04;;;;;;;6.20;2.50;;;;;;;16.87;100.00;99748.53;693441;28;1358;-60
2023/07/24 00:47:27;;;;;;;4.85;2.50;;;;;;;16.88;100.00;99744.97;693425;28;1449;-59
2023/07/24 00:47:47;;;;;;;5.00;2.40;;;;;;;16.87;100.00;99743.25;693405;28;1312;-59
2023/07/24 00:48:08;;;;;;;5.35;2.40;;;;;;;16.87;100.00;99747.69;693537;28;907;-59
2023/07/24 00:48:28;;;;;;;4.10;2.40;;;;;;;16.88;100.00;99744.97;694337;28;1444;-60
2023/07/24 00:48:49;;;;;;;4.13;2.45;;;;;;;16.88;100.00;99746.75;696416;28;1299;-60
2023/07/24 00:49:10;;;;;;;3.95;2.40;;;;;;;16.87;100.00;99742.41;690253;28;4854;-59
2023/07/24 00:49:30;;;;;;;4.70;2.47;;;;;;;16.90;100.00;99742.28;690116;28;1553;-60
2023/07/24 00:49:51;;;;;;;5.20;2.60;;;;;;;16.90;100.00;99737.84;692138;28;1408;-59
2023/07/24 00:50:12;;;;;;;4.72;2.60;;;;;;;16.88;100.00;99734.41;695060;28;1014;-60
2023/07/24 00:50:35;;;;;;;5.18;2.65;;;;;;;16.88;100.00;99737.06;693135;28;1549;-59
2023/07/24 00:50:56;;;;;;;4.45;2.50;;;;;;;16.89;100.00;99733.53;695187;28;1300;-59
2023/07/24 00:51:17;;;;;;;4.70;2.60;;;;;;;16.87;100.00;99740.63;695785;28;1597;-60
2023/07/24 00:51:37;;;;;;;5.00;2.57;;;;;;;16.90;100.00;99743.13;698169;28;793;-59
2023/07/24 00:51:57;;;;;;;5.00;2.57;;;;;;;16.90;100.00;99737.84;694281;28;1063;-59
2023/07/24 00:52:19;;;;;;;5.00;2.58;;;;;;;16.90;100.00;99735.22;692133;28;4498;-60
2023/07/24 00:52:41;;;;;;;4.70;2.60;;;;;;;16.90;100.00;99735.22;695343;28;884;-60
2023/07/24 00:53:01;;;;;;;4.40;2.53;;;;;;;16.90;100.00;99731.72;694468;28;964;-59
2023/07/24 00:53:22;;;;;;;4.40;2.60;;;;;;;16.89;100.00;99737.94;696228;28;1440;-60
2023/07/24 00:53:43;;;;;;;4.55;2.60;;;;;;;16.90;100.00;99737.84;694529;28;1177;-59
2023/07/24 00:54:05;;;;;;;4.32;2.60;;;;;;;16.89;100.00;99733.53;697376;28;1019;-60
2023/07/24 00:54:29;;;;;;;4.25;2.47;;;;;;;16.90;100.00;99729.09;693567;28;1300;-59
2023/07/24 00:54:50;;;;;;;4.25;2.50;;;;;;;16.92;100.00;99733.38;694618;28;2795;-59
2023/07/24 00:55:13;;;;;;;4.53;2.60;;;;;;;16.93;100.00;99729.78;692033;28;4547;-60
2023/07/24 00:55:35;;;;;;;4.72;2.70;;;;;;;16.93;100.00;99732.44;694131;28;976;-59
2023/07/24 00:55:56;;;;;;;5.47;2.92;;;;;;;16.92;100.00;99732.50;692617;28;1164;-59
2023/07/24 00:56:17;;;;;;;4.77;2.80;;;;;;;16.88;100.00;99731.78;689899;28;1606;-60
2023/07/24 00:56:37;;;;;;;4.97;2.70;;;;;;;16.89;100.00;99735.28;692536;28;982;-59
2023/07/24 00:56:58;;;;;;;4.73;2.73;;;;;;;16.89;100.00;99724.72;693941;28;1034;-59
2023/07/24 00:57:19;;;;;;;4.63;2.60;;;;;;;16.89;100.00;99733.53;694094;28;1593;-59
2023/07/24 00:57:40;;;;;;;4.30;2.50;;;;;;;16.89;100.00;99730.00;693784;28;1181;-60
2023/07/24 00:58:02;;;;;;;3.97;2.50;;;;;;;16.89;100.00;99724.72;688823;28;1910;-60
2023/07/24 00:58:26;;;;;;;4.18;2.50;;;;;;;16.90;100.00;99724.66;690450;28;4334;-60
2023/07/24 00:58:47;;;;;;;4.25;2.50;;;;;;;16.90;100.00;99726.44;694706;28;780;-60
2023/07/24 00:59:08;;;;;;;5.18;2.70;;;;;;;16.92;100.00;99730.75;694886;28;1086;-59
2023/07/24 00:59:29;;;;;;;4.70;2.78;;;;;;;16.91;100.00;99721.09;693430;28;1468;-60
2023/07/24 00:59:50;;;;;;;4.90;2.67;;;;;;;16.91;100.00;99717.63;699739;28;1410;-59
2023/07/24 01:00:11;;;;;;;4.40;2.50;;;;;;;16.91;100.00;99723.75;698648;28;1487;-59
2023/07/24 01:00:32;;;;;;;4.30;2.40;;;;;;;16.92;100.00;99721.94;694565;28;1465;-60
2023/07/24 01:00:53;;;;;;;4.53;2.38;;;;;;;16.91;100.00;99726.38;697287;28;1131;-59
2023/07/24 01:01:16;;;;;;;5.05;2.53;;;;;;;16.91;100.00;99720.25;693569;28;4447;-60
2023/07/24 01:01:37;;;;;;;4.57;2.53;;;;;;;16.91;100.00;99722.91;691803;28;1514;-60
2023/07/24 01:01:58;;;;;;;5.10;2.70;;;;;;;16.91;100.00;99714.97;690373;28;1367;-59
2023/07/24 01:02:18;;;;;;;4.70;2.55;;;;;;;16.91;100.00;99722.91;691873;28;1519;-59
2023/07/24 01:02:39;;;;;;;4.37;2.60;;;;;;;16.93;100.00;99721.88;694904;28;1054;-60
2023/07/24 01:03:00;;;;;;;4.63;2.80;;;;;;;16.92;100.00;99719.31;694865;28;924;-60
2023/07/24 01:03:24;;;;;;;4.78;2.55;;;;;;;16.90;100.00;99718.53;697211;28;1661;-60
2023/07/24 01:03:45;;;;;;;4.38;2.50;;;;;;;16.90;100.00;99719.38;697202;28;896;-59
2023/07/24 01:04:06;;;;;;;4.70;2.97;;;;;;;16.89;100.00;99717.69;697473;28;924;-59
2023/07/24 01:04:27;;;;;;;4.80;2.80;;;;;;;16.84;100.00;99715.22;692199;28;4509;-59
2023/07/24 01:04:50;;;;;;;4.70;2.70;;;;;;;16.85;100.00;99713.44;693032;28;829;-60
2023/07/24 01:05:14;;;;;;;4.55;2.47;;;;;;;16.88;100.00;99715.94;691512;28;881;-60
2023/07/24 01:05:35;;;;;;;4.90;2.60;;;;;;;16.88;100.00;99710.66;690031;28;2209;-59
2023/07/24 01:05:56;;;;;;;5.17;2.80;;;;;;;16.89;100.00;99714.19;691242;28;1229;-60
2023/07/24 01:06:16;;;;;;;4.90;2.70;;;;;;;16.89;100.00;99712.41;691866;28;1481;-60
2023/07/24 01:06:37;;;;;;;5.27;3.00;;;;;;;16.89;100.00;99708.91;695917;28;905;-60
2023/07/24 01:06:57;;;;;;;5.18;3.15;;;;;;;16.87;100.00;99708.94;698053;28;924;-59
2023/07/24 01:07:18;;;;;;;4.23;2.73;;;;;;;16.86;100.00;99712.50;696434;28;4342;-59
2023/07/24 01:07:38;;;;;;;3.70;2.20;;;;;;;16.85;100.00;99708.16;697759;28;1152;-59
2023/07/24 01:07:58;;;;;;;4.63;2.60;;;;;;;16.85;100.00;99705.53;698233;28;1572;-60
2023/07/24 01:08:19;;;;;;;5.65;3.03;;;;;;;16.83;100.00;99707.38;696768;28;1485;-60
2023/07/24 01:08:39;;;;;;;4.67;2.53;;;;;;;16.82;100.00;99710.91;694877;28;904;-60
2023/07/24 01:09:00;;;;;;;4.78;2.63;;;;;;;16.82;100.00;99713.56;695868;28;994;-59
2023/07/24 01:09:20;;;;;;;4.53;2.60;;;;;;;16.81;100.00;99709.22;697202;28;1457;-60
2023/07/24 01:09:41;;;;;;;4.53;2.50;;;;;;;16.83;100.00;99700.28;699155;28;816;-59
2023/07/24 01:10:01;;;;;;;4.72;2.60;;;;;;;16.87;100.00;99713.38;699241;28;824;-60
2023/07/24 01:10:22;;;;;;;4.40;2.40;;;;;;;16.85;100.00;99711.66;696870;28;4453;-60
2023/07/24 01:10:42;;;;;;;5.90;2.80;;;;;;;16.85;100.00;99708.16;700162;28;888;-59
2023/07/24 01:11:14;;;;;;;5.97;3.00;;;;;;;16.85;100.00;99705.53;698893;28;911;-59
2023/07/24 01:11:47;;;;;;;5.35;2.60;;;;;;;16.86;100.00;99709.84;696613;28;1529;-60
2023/07/24 01:12:19;;;;;;;4.60;2.90;;;;;;;16.86;100.00;99707.22;692354;28;1478;-59
2023/07/24 01:12:55;;;;;;;4.53;2.90;;;;;;;16.87;100.00;99706.28;695487;28;948;-59
2023/07/24 01:13:22;;;;;;;4.85;2.85;;;;;;;16.94;100.00;99715.66;693398;28;4689;-59
2023/07/24 01:14:10;;;;;;;4.60;2.60;;;;;;;16.90;100.00;99700.91;694132;28;2071;-60
2023/07/24 01:14:46;;;;;;;5.32;2.63;;;;;;;16.87;100.00;99701.03;686819;28;1522;-60
2023/07/24 01:15:09;;;;;;;4.65;2.80;;;;;;;16.87;100.00;99700.16;693357;28;1189;-60
2023/07/24 01:15:33;;;;;;;4.22;2.63;;;;;;;16.86;100.00;99699.28;693186;28;1507;-59
2023/07/24 01:16:06;;;;;;;4.63;2.85;;;;;;;16.85;100.00;99698.44;697134;28;3331;-59
2023/07/24 01:16:35;;;;;;;4.90;2.72;;;;;;;16.87;100.00;99703.66;694648;28;4546;-59
2023/07/24 01:16:58;;;;;;;4.88;2.80;;;;;;;16.88;100.00;99696.59;698672;28;1089;-60
2023/07/24 01:17:24;;;;;;;4.88;2.80;;;;;;;16.93;100.00;99695.47;697984;28;1545;-60
2023/07/24 01:17:49;;;;;;;4.97;2.50;;;;;;;16.91;100.00;99697.34;694331;28;1285;-59
2023/07/24 01:18:13;;;;;;;4.72;2.55;;;;;;;16.91;100.00;99692.06;693041;28;1978;-60
2023/07/24 01:18:36;;;;;;;5.80;2.65;;;;;;;16.90;100.00;99692.97;691992;28;1464;-60
2023/07/24 01:18:58;;;;;;;5.32;2.72;;;;;;;16.90;100.00;99698.25;693965;28;937;-60
2023/07/24 01:19:37;;;;;;;4.28;2.60;;;;;;;16.91;100.00;99692.06;689583;28;4429;-60
2023/07/24 01:19:59;;;;;;;6.03;3.00;;;;;;;16.89;100.00;99690.41;689803;28;1290;-60
2023/07/24 01:20:22;;;;;;;4.43;2.83;;;;;;;16.87;100.00;99690.47;690731;28;1491;-60
2023/07/24 01:20:50;;;;;;;4.78;2.80;;;;;;;16.87;100.00;99685.19;693931;28;936;-60
2023/07/24 01:21:14;;;;;;;5.13;2.97;;;;;;;16.87;100.00;99682.53;697326;28;968;-60
2023/07/24 01:21:44;;;;;;;5.10;3.05;;;;;;;16.87;100.00;99685.19;697807;28;1463;-59
2023/07/24 01:22:39;;;;;;;5.28;2.83;;;;;;;16.89;100.00;99683.38;697370;28;921;-59
2023/07/24 01:23:18;;;;;;;5.00;2.90;;;;;;;17.02;100.00;99688.94;691809;28;6348;-59
2023/07/24 01:24:09;;;;;;;4.35;2.65;;;;;;;16.99;100.00;99687.28;691647;28;922;-59
2023/07/24 01:24:36;;;;;;;5.00;2.67;;;;;;;16.93;100.00;99677.00;692687;28;1594;-60
2023/07/24 01:25:15;;;;;;;4.93;2.75;;;;;;;16.95;100.00;99680.44;692517;28;1049;-60
2023/07/24 01:25:44;;;;;;;5.65;2.83;;;;;;;16.97;100.00;99680.34;691130;28;1539;-60
2023/07/24 01:26:06;;;;;;;4.85;2.60;;;;;;;16.98;100.00;99680.28;691540;28;964;-59
2023/07/24 01:26:27;;;;;;;4.93;2.85;;;;;;;16.96;100.00;99681.28;691223;28;1496;-59
2023/07/24 01:26:47;;;;;;;4.47;2.77;;;;;;;16.94;100.00;99678.72;692316;28;1222;-60
2023/07/24 01:27:07;;;;;;;4.82;2.88;;;;;;;16.94;100.00;99683.16;696521;28;1071;-60
2023/07/24 01:27:28;;;;;;;5.30;2.87;;;;;;;16.92;100.00;99682.34;694611;28;1578;-60
2023/07/24 01:27:48;;;;;;;4.90;2.80;;;;;;;16.91;100.00;99681.50;698311;28;976;-59
2023/07/24 01:28:09;;;;;;;4.40;2.70;;;;;;;16.91;100.00;99681.50;693360;28;4410;-60
2023/07/24 01:28:30;;;;;;;4.63;2.65;;;;;;;16.91;100.00;99681.50;693041;28;1421;-60
2023/07/24 01:28:50;;;;;;;5.40;2.92;;;;;;;16.91;100.00;99672.75;694480;28;1114;-59
2023/07/24 01:29:12;;;;;;;4.55;2.70;;;;;;;16.90;100.00;99679.78;691426;28;1390;-60
2023/07/24 01:29:33;;;;;;;3.97;2.45;;;;;;;16.94;100.00;99680.50;689628;28;1449;-60
2023/07/24 01:29:53;;;;;;;4.30;2.80;;;;;;;16.96;100.00;99678.63;690468;28;1312;-60
2023/07/24 01:30:17;;;;;;;4.70;2.78;;;;;;;16.95;100.00;99677.78;692111;28;926;-60
2023/07/24 01:30:38;;;;;;;4.97;2.80;;;;;;;16.94;100.00;99675.22;690462;28;1245;-60
2023/07/24 01:30:58;;;;;;;5.57;2.92;;;;;;;17.04;100.00;99679.13;692005;28;1094;-60
2023/07/24 01:31:19;;;;;;;5.20;2.77;;;;;;;17.04;100.00;99675.66;691126;28;4490;-60
2023/07/24 01:31:39;;;;;;;4.90;2.60;;;;;;;17.02;100.00;99675.72;693212;28;1018;-59
2023/07/24 01:31:59;;;;;;;5.43;2.93;;;;;;;17.01;100.00;99679.28;696425;28;812;-60
2023/07/24 01:32:20;;;;;;;5.87;2.70;;;;;;;17.00;100.00;99678.44;690508;28;1397;-60
2023/07/24 01:32:41;;;;;;;4.50;2.50;;;;;;;16.99;100.00;99676.72;693820;28;912;-60
2023/07/24 01:33:02;;;;;;;4.43;2.85;;;;;;;17.01;100.00;99682.78;694766;28;874;-59
2023/07/24 01:33:24;;;;;;;4.80;2.97;;;;;;;17.01;100.00;99677.50;694854;28;1400;-60
2023/07/24 01:33:45;;;;;;;5.90;3.00;;;;;;;17.06;100.00;99676.41;696043;28;818;-59
2023/07/24 01:34:05;;;;;;;4.70;3.08;;;;;;;17.06;100.00;99673.78;697248;28;786;-60
2023/07/24 01:34:25;;;;;;;4.60;3.00;;;;;;;17.04;100.00;99675.66;699264;28;4472;-60
2023/07/24 01:34:46;;;;;;;5.13;3.00;;;;;;;17.02;100.00;99662.53;695188;28;1332;-59
2023/07/24 01:35:07;;;;;;;4.70;2.65;;;;;;;17.01;100.00;99676.66;692928;28;967;-60
2023/07/24 01:35:29;;;;;;;5.00;2.80;;;;;;;16.99;100.00;99674.09;691960;28;1592;-60
2023/07/24 01:35:54;;;;;;;4.25;2.70;;;;;;;16.97;100.00;99668.00;691961;28;948;-60
2023/07/24 01:36:15;;;;;;;4.20;2.70;;;;;;;16.97;100.00;99669.78;691628;28;825;-60
2023/07/24 01:36:36;;;;;;;4.77;2.80;;;;;;;16.96;100.00;99674.22;694815;28;1432;-60
2023/07/24 01:36:56;;;;;;;4.90;2.60;;;;;;;16.97;100.00;99673.28;697495;28;1098;-60
2023/07/24 01:37:19;;;;;;;4.70;2.70;;;;;;;16.96;100.00;99674.22;696288;28;4568;-60
2023/07/24 01:37:41;;;;;;;5.20;2.70;;;;;;;17.02;100.00;99671.28;698755;28;908;-60
2023/07/24 01:38:03;;;;;;;6.22;2.83;;;;;;;17.06;100.00;99671.13;697045;28;1981;-60
2023/07/24 01:38:25;;;;;;;5.10;2.70;;;;;;;17.11;100.00;99677.06;696836;28;1557;-60
2023/07/24 01:38:48;;;;;;;5.00;2.83;;;;;;;17.09;100.00;99678.94;696316;28;994;-60
2023/07/24 01:39:09;;;;;;;4.95;2.63;;;;;;;17.06;100.00;99668.50;697084;28;829;-60
2023/07/24 01:39:30;;;;;;;4.90;2.80;;;;;;;17.05;100.00;99672.94;695618;28;1638;-60
2023/07/24 01:39:52;;;;;;;5.40;2.60;;;;;;;17.06;100.00;99669.38;696024;28;837;-60
2023/07/24 01:40:13;;;;;;;5.68;2.80;;;;;;;17.05;100.00;99674.72;689333;28;4293;-59
2023/07/24 01:40:34;;;;;;;5.05;2.55;;;;;;;17.04;100.00;99675.66;689284;28;1439;-59
2023/07/24 01:40:55;;;;;;;5.70;2.65;;;;;;;17.04;100.00;99667.72;688015;28;952;-60
2023/07/24 01:41:15;;;;;;;5.17;3.07;;;;;;;17.04;100.00;99668.56;687606;28;1186;-60
2023/07/24 01:41:36;;;;;;;5.25;3.00;;;;;;;17.05;100.00;99675.56;686569;28;1594;-60
2023/07/24 01:41:56;;;;;;;4.53;2.63;;;;;;;17.06;100.00;99668.50;690632;28;833;-60
2023/07/24 01:42:17;;;;;;;5.00;2.80;;;;;;;17.07;100.00;99670.22;687526;28;5328;-60
2023/07/24 01:42:38;;;;;;;4.10;2.60;;;;;;;17.08;100.00;99679.84;689989;28;824;-60
2023/07/24 01:42:59;;;;;;;4.40;2.70;;;;;;;17.05;100.00;99661.53;690376;28;879;-60
2023/07/24 01:43:20;;;;;;;4.50;2.90;;;;;;;17.01;100.00;99669.56;688858;28;4328;-60
2023/07/24 01:43:40;;;;;;;6.10;2.60;;;;;;;16.99;100.00;99666.16;690383;28;1208;-60
2023/07/24 01:44:01;;;;;;;4.93;2.80;;;;;;;16.98;100.00;99667.09;694252;28;1451;-60
2023/07/24 01:44:21;;;;;;;5.43;2.65;;;;;;;16.99;100.00;99663.53;698421;28;1451;-60